Alamogordo/Holloman AFB, New Mexico
Current Conditions -  °F | °C
As of 11:58 PM on Friday 31 Oct 2014 (Local Time) from KHMN Reporting Station
Clear Clear  
Wind Chill: 58°   Ceiling: Unl
Heat Index: 58°   Visibility: 10mi
Dew Point: 38°   Wind: 10mph
Humidity: 48%   Direction: 200°SSW
Pressure: 30.19"   Gusts: NA
Location:  32.85°N, 106.1°W
Report Text: KHMN 010558Z AUTO 20009KT 10SM CLR 14/03 A3019 RMK AO2 SLP175 T01430033 10198 20143 55006 $
Loading
Personal Weather Stations






























Interactive Weather Map
Tropical Storm Tracking
New forecast layout! Learn more

10-Day Weather Forecast

Advertisements
Track Severe Weather on mobile